To NAV CANADA Home Page Login to a new session Search on AWWS site Disclaimer Vers la page française équivalente Tips FAQ What's new on the site To the Forecasts and Observations / NOTAM section To "File a Flight Plan" website Publications and other links Update of the User's profile FIC Telephone Numbers My Weather Data Folder Route Weather Data Regional Weather Data Local Weather Data To the Forecasts and Observations / NOTAM section
Request Generated 03/18/2019 at 19:50:16 UTC . Weather information available at that time is displayed.

METAR/TAF

KITCHENER/WATERLOO/ON    (show WxCam)

METAR CYKF 181900Z AUTO 30015KT 9SM SCT039 02/M08 A3025 RMK SLP258=
METAR CYKF 181800Z AUTO 28017KT 9SM BKN038 02/M06 A3025 RMK SLP260=
METAR CYKF 181700Z AUTO 30015G20KT 9SM FEW030 BKN042 BKN055 M00/M07 A3025 RMK SLP260=

TAF CYKF 181938Z 1820/1908 30010G20KT P6SM SCT040 TEMPO 1820/1823
BKN040
FM182300 27008KT P6SM FEW050
FM190300 22008KT P6SM BKN060 TEMPO 1904/1908 2SM -SHSN BKN020
OVC060
BECMG 1906/1908 VRB03KT
RMK FCST BASED ON AUTO OBS. NXT FCST BY 190200Z=

LONDON/ON    

METAR CYXU 181900Z 31013G19KT 15SM SCT036 02/M06 A3028 RMK CU4 SH DIST SE-SW SLP270=
METAR CYXU 181800Z 32012G18KT 15SM FEW029 BKN034 02/M06 A3028 RMK CF1CU5 CF TR SH DIST SE-SW SLP270=
METAR CYXU 181700Z 28010G17KT 260V330 15SM FEW029 SCT036 SCT060 SCT250 02/M06 A3028 RMK CF1CU4SC1CI1 CF TR SC TR CI TR SLP269=

TAF CYXU 181739Z 1818/1918 31012KT P6SM SCT040 TEMPO 1818/1820 BKN040
BECMG 1822/1824 VRB03KT
FM190300 22008KT P6SM SCT030 BKN070 TEMPO 1904/1908 2SM -SHSN
BKN020 OVC070
FM190800 VRB03KT P6SM FEW015 FEW050
FM191000 VRB03KT 6SM BR FEW008
FM191400 27005KT P6SM FEW025
FM191700 27008KT P6SM BKN040
RMK NXT FCST BY 190000Z=

HAMILTON/ON    

METAR CYHM 181900Z 30014G21KT 15SM BKN044 02/M08 A3025 RMK SC5 SLP256=
METAR CYHM 181800Z 29014G21KT 15SM BKN046 02/M08 A3026 RMK SC7 SLP258=
METAR CYHM 181700Z 27011G17KT 15SM FEW015 SCT034 BKN070 03/M06 A3026 RMK CF1CU3AC2 CF TR SLP258=

TAF CYHM 181739Z 1818/1918 28010G20KT P6SM SCT040 BKN070 TEMPO
1818/1823 P6SM -SHSNRA BKN040 BKN070
FM182300 28008KT P6SM FEW040
FM190500 23008KT P6SM SCT030 BKN070 TEMPO 1906/1910 2SM -SHSN
BKN020 OVC070
FM191000 24006KT P6SM FEW015 FEW030
FM191200 25006KT 6SM BR FEW008
FM191500 26008KT P6SM FEW030
RMK NXT FCST BY 190000Z=
Your time UTC time
Weather data provided by Environment Canada and NAV CANADA